sensor_id;sensor_type;location;lat;lon;timestamp;temperature;humidity
49373;DHT22;44113;38.408;-122.974;2022-11-06T00:02:14;30.30;45.70
49373;DHT22;44113;38.408;-122.974;2022-11-06T00:04:40;30.40;45.40
49373;DHT22;44113;38.408;-122.974;2022-11-06T00:07:06;30.50;45.10
49373;DHT22;44113;38.408;-122.974;2022-11-06T00:09:34;30.50;44.90
49373;DHT22;44113;38.408;-122.974;2022-11-06T00:12:00;30.50;44.80
49373;DHT22;44113;38.408;-122.974;2022-11-06T00:14:27;30.60;44.80
49373;DHT22;44113;38.408;-122.974;2022-11-06T00:16:53;30.60;44.70
49373;DHT22;44113;38.408;-122.974;2022-11-06T00:19:20;30.60;44.70
49373;DHT22;44113;38.408;-122.974;2022-11-06T00:21:46;30.70;44.60
49373;DHT22;44113;38.408;-122.974;2022-11-06T00:24:13;30.60;44.50
49373;DHT22;44113;38.408;-122.974;2022-11-06T00:26:41;30.70;44.60
49373;DHT22;44113;38.408;-122.974;2022-11-06T00:29:12;30.70;44.60
49373;DHT22;44113;38.408;-122.974;2022-11-06T00:31:39;30.70;44.70
49373;DHT22;44113;38.408;-122.974;2022-11-06T00:34:06;30.70;44.70
49373;DHT22;44113;38.408;-122.974;2022-11-06T00:36:32;30.60;44.60
49373;DHT22;44113;38.408;-122.974;2022-11-06T00:38:59;30.60;44.70
49373;DHT22;44113;38.408;-122.974;2022-11-06T00:41:26;30.70;44.70
49373;DHT22;44113;38.408;-122.974;2022-11-06T00:43:55;30.70;44.70
49373;DHT22;44113;38.408;-122.974;2022-11-06T00:46:22;30.60;44.70
49373;DHT22;44113;38.408;-122.974;2022-11-06T00:48:49;30.60;44.70
49373;DHT22;44113;38.408;-122.974;2022-11-06T00:51:22;30.60;44.70
49373;DHT22;44113;38.408;-122.974;2022-11-06T00:53:57;30.60;44.80
49373;DHT22;44113;38.408;-122.974;2022-11-06T00:56:24;30.50;44.70
49373;DHT22;44113;38.408;-122.974;2022-11-06T00:58:52;30.50;44.70
49373;DHT22;44113;38.408;-122.974;2022-11-06T01:01:22;30.60;44.80
49373;DHT22;44113;38.408;-122.974;2022-11-06T01:04:05;30.50;44.80
49373;DHT22;44113;38.408;-122.974;2022-11-06T01:06:35;30.50;44.80
49373;DHT22;44113;38.408;-122.974;2022-11-06T01:09:03;30.50;44.90
49373;DHT22;44113;38.408;-122.974;2022-11-06T01:11:35;30.40;44.90
49373;DHT22;44113;38.408;-122.974;2022-11-06T01:14:04;30.40;45.00
49373;DHT22;44113;38.408;-122.974;2022-11-06T01:16:31;30.40;45.10
49373;DHT22;44113;38.408;-122.974;2022-11-06T01:18:58;30.40;45.10
49373;DHT22;44113;38.408;-122.974;2022-11-06T01:21:28;30.30;45.20
49373;DHT22;44113;38.408;-122.974;2022-11-06T01:23:58;30.30;45.10
49373;DHT22;44113;38.408;-122.974;2022-11-06T01:26:26;30.30;45.20
49373;DHT22;44113;38.408;-122.974;2022-11-06T01:28:55;30.20;45.20
49373;DHT22;44113;38.408;-122.974;2022-11-06T01:31:26;30.20;45.40
49373;DHT22;44113;38.408;-122.974;2022-11-06T01:33:58;30.20;45.40
49373;DHT22;44113;38.408;-122.974;2022-11-06T01:36:25;30.10;45.50
49373;DHT22;44113;38.408;-122.974;2022-11-06T01:38:54;30.10;45.60
49373;DHT22;44113;38.408;-122.974;2022-11-06T01:41:29;30.00;45.70
49373;DHT22;44113;38.408;-122.974;2022-11-06T01:44:02;30.00;45.80
49373;DHT22;44113;38.408;-122.974;2022-11-06T01:46:34;29.90;45.90
49373;DHT22;44113;38.408;-122.974;2022-11-06T01:49:14;29.90;46.00
49373;DHT22;44113;38.408;-122.974;2022-11-06T01:54:13;29.80;46.10
49373;DHT22;44113;38.408;-122.974;2022-11-06T01:56:41;29.80;46.10
49373;DHT22;44113;38.408;-122.974;2022-11-06T01:59:11;29.80;46.20
49373;DHT22;44113;38.408;-122.974;2022-11-06T02:01:39;29.70;46.20
49373;DHT22;44113;38.408;-122.974;2022-11-06T02:04:16;29.70;46.30
49373;DHT22;44113;38.408;-122.974;2022-11-06T02:06:44;29.60;46.30
49373;DHT22;44113;38.408;-122.974;2022-11-06T02:09:13;29.60;46.40
49373;DHT22;44113;38.408;-122.974;2022-11-06T02:11:41;29.50;46.50
49373;DHT22;44113;38.408;-122.974;2022-11-06T02:17:02;29.40;46.70
49373;DHT22;44113;38.408;-122.974;2022-11-06T02:25:11;29.20;46.80
49373;DHT22;44113;38.408;-122.974;2022-11-06T02:27:44;29.20;47.00
49373;DHT22;44113;38.408;-122.974;2022-11-06T02:30:13;29.10;47.00
49373;DHT22;44113;38.408;-122.974;2022-11-06T02:32:57;29.10;47.10
49373;DHT22;44113;38.408;-122.974;2022-11-06T02:35:31;29.10;47.10
49373;DHT22;44113;38.408;-122.974;2022-11-06T02:38:13;29.00;47.20
49373;DHT22;44113;38.408;-122.974;2022-11-06T02:40:47;29.00;47.20
49373;DHT22;44113;38.408;-122.974;2022-11-06T02:43:14;28.90;47.30
49373;DHT22;44113;38.408;-122.974;2022-11-06T02:45:54;28.80;47.30
49373;DHT22;44113;38.408;-122.974;2022-11-06T02:48:27;28.80;47.40
49373;DHT22;44113;38.408;-122.974;2022-11-06T02:50:58;28.80;47.50
49373;DHT22;44113;38.408;-122.974;2022-11-06T02:53:26;28.70;47.60
49373;DHT22;44113;38.408;-122.974;2022-11-06T02:56:15;28.60;47.60
49373;DHT22;44113;38.408;-122.974;2022-11-06T02:58:54;28.60;47.70
49373;DHT22;44113;38.408;-122.974;2022-11-06T03:01:50;28.60;47.70
49373;DHT22;44113;38.408;-122.974;2022-11-06T03:04:29;28.50;48.40
49373;DHT22;44113;38.408;-122.974;2022-11-06T03:07:02;28.50;47.90
49373;DHT22;44113;38.408;-122.974;2022-11-06T03:09:32;28.40;47.90
49373;DHT22;44113;38.408;-122.974;2022-11-06T03:15:27;28.30;48.00
49373;DHT22;44113;38.408;-122.974;2022-11-06T03:20:21;28.20;48.10
49373;DHT22;44113;38.408;-122.974;2022-11-06T03:22:56;28.10;48.20
49373;DHT22;44113;38.408;-122.974;2022-11-06T03:25:30;28.10;48.20
49373;DHT22;44113;38.408;-122.974;2022-11-06T03:28:09;28.10;48.60
49373;DHT22;44113;38.408;-122.974;2022-11-06T03:30:47;28.00;48.60
49373;DHT22;44113;38.408;-122.974;2022-11-06T03:33:37;28.00;48.70
49373;DHT22;44113;38.408;-122.974;2022-11-06T03:36:11;28.00;49.00
49373;DHT22;44113;38.408;-122.974;2022-11-06T03:38:47;27.90;48.90
49373;DHT22;44113;38.408;-122.974;2022-11-06T03:41:35;27.80;49.00
49373;DHT22;44113;38.408;-122.974;2022-11-06T03:44:05;27.80;49.10
49373;DHT22;44113;38.408;-122.974;2022-11-06T03:46:37;27.80;49.20
49373;DHT22;44113;38.408;-122.974;2022-11-06T03:49:09;27.70;49.10
49373;DHT22;44113;38.408;-122.974;2022-11-06T03:51:51;27.60;49.10
49373;DHT22;44113;38.408;-122.974;2022-11-06T03:54:48;27.60;49.20
49373;DHT22;44113;38.408;-122.974;2022-11-06T03:57:27;27.50;49.10
49373;DHT22;44113;38.408;-122.974;2022-11-06T03:59:59;27.50;49.30
49373;DHT22;44113;38.408;-122.974;2022-11-06T04:02:29;27.50;49.30
49373;DHT22;44113;38.408;-122.974;2022-11-06T04:05:02;27.40;49.40
49373;DHT22;44113;38.408;-122.974;2022-11-06T04:07:35;27.40;49.30
49373;DHT22;44113;38.408;-122.974;2022-11-06T04:10:05;27.40;49.60
49373;DHT22;44113;38.408;-122.974;2022-11-06T04:12:54;27.40;49.60
49373;DHT22;44113;38.408;-122.974;2022-11-06T04:15:44;27.30;49.60
49373;DHT22;44113;38.408;-122.974;2022-11-06T04:18:16;27.30;49.70
49373;DHT22;44113;38.408;-122.974;2022-11-06T04:24:05;27.20;49.60
49373;DHT22;44113;38.408;-122.974;2022-11-06T04:32:21;27.10;49.70
49373;DHT22;44113;38.408;-122.974;2022-11-06T04:35:03;27.00;49.80
49373;DHT22;44113;38.408;-122.974;2022-11-06T04:37:39;27.00;50.00
49373;DHT22;44113;38.408;-122.974;2022-11-06T04:40:17;26.90;49.90
49373;DHT22;44113;38.408;-122.974;2022-11-06T04:45:35;26.80;50.50
49373;DHT22;44113;38.408;-122.974;2022-11-06T04:48:04;26.80;50.60
49373;DHT22;44113;38.408;-122.974;2022-11-06T04:50:36;26.80;50.50
49373;DHT22;44113;38.408;-122.974;2022-11-06T04:53:05;26.80;50.40
49373;DHT22;44113;38.408;-122.974;2022-11-06T04:55:45;26.80;50.40
49373;DHT22;44113;38.408;-122.974;2022-11-06T04:58:12;26.70;50.40
49373;DHT22;44113;38.408;-122.974;2022-11-06T05:00:41;26.60;50.50
49373;DHT22;44113;38.408;-122.974;2022-11-06T05:03:09;26.60;50.60
49373;DHT22;44113;38.408;-122.974;2022-11-06T05:05:36;26.50;50.60
49373;DHT22;44113;38.408;-122.974;2022-11-06T05:08:03;26.50;50.70
49373;DHT22;44113;38.408;-122.974;2022-11-06T05:10:30;26.50;50.70
49373;DHT22;44113;38.408;-122.974;2022-11-06T05:12:58;26.40;50.70
49373;DHT22;44113;38.408;-122.974;2022-11-06T05:15:25;26.40;50.70
49373;DHT22;44113;38.408;-122.974;2022-11-06T05:17:53;26.40;50.80
49373;DHT22;44113;38.408;-122.974;2022-11-06T05:20:19;26.40;50.90
49373;DHT22;44113;38.408;-122.974;2022-11-06T05:22:46;26.30;50.90
49373;DHT22;44113;38.408;-122.974;2022-11-06T05:25:33;26.30;50.90
49373;DHT22;44113;38.408;-122.974;2022-11-06T05:28:02;26.30;51.00
49373;DHT22;44113;38.408;-122.974;2022-11-06T05:30:32;26.30;51.20
49373;DHT22;44113;38.408;-122.974;2022-11-06T05:32:58;26.30;51.20
49373;DHT22;44113;38.408;-122.974;2022-11-06T05:35:25;26.30;51.40
49373;DHT22;44113;38.408;-122.974;2022-11-06T05:37:58;26.20;51.30
49373;DHT22;44113;38.408;-122.974;2022-11-06T05:40:25;26.20;51.40
49373;DHT22;44113;38.408;-122.974;2022-11-06T05:42:51;26.10;51.30
49373;DHT22;44113;38.408;-122.974;2022-11-06T05:45:18;26.10;51.30
49373;DHT22;44113;38.408;-122.974;2022-11-06T05:47:45;26.10;51.20
49373;DHT22;44113;38.408;-122.974;2022-11-06T05:50:11;26.00;51.40
49373;DHT22;44113;38.408;-122.974;2022-11-06T05:52:38;26.00;51.40
49373;DHT22;44113;38.408;-122.974;2022-11-06T05:55:05;25.90;51.40
49373;DHT22;44113;38.408;-122.974;2022-11-06T05:57:33;25.90;51.50
49373;DHT22;44113;38.408;-122.974;2022-11-06T06:00:00;25.90;51.50
49373;DHT22;44113;38.408;-122.974;2022-11-06T06:02:27;25.90;51.60
49373;DHT22;44113;38.408;-122.974;2022-11-06T06:04:54;25.90;51.50
49373;DHT22;44113;38.408;-122.974;2022-11-06T06:07:20;25.90;51.50
49373;DHT22;44113;38.408;-122.974;2022-11-06T06:09:48;25.90;51.50
49373;DHT22;44113;38.408;-122.974;2022-11-06T06:12:15;25.80;51.50
49373;DHT22;44113;38.408;-122.974;2022-11-06T06:14:42;25.80;51.50
49373;DHT22;44113;38.408;-122.974;2022-11-06T06:17:08;25.80;51.50
49373;DHT22;44113;38.408;-122.974;2022-11-06T06:19:36;25.70;51.50
49373;DHT22;44113;38.408;-122.974;2022-11-06T06:22:03;25.70;51.50
49373;DHT22;44113;38.408;-122.974;2022-11-06T06:24:29;25.70;51.50
49373;DHT22;44113;38.408;-122.974;2022-11-06T06:26:57;25.60;51.40
49373;DHT22;44113;38.408;-122.974;2022-11-06T06:29:23;25.60;51.50
49373;DHT22;44113;38.408;-122.974;2022-11-06T06:31:50;25.50;51.60
49373;DHT22;44113;38.408;-122.974;2022-11-06T06:34:17;25.50;51.70
49373;DHT22;44113;38.408;-122.974;2022-11-06T06:36:43;25.50;51.80
49373;DHT22;44113;38.408;-122.974;2022-11-06T06:39:11;25.40;51.70
49373;DHT22;44113;38.408;-122.974;2022-11-06T06:41:37;25.40;51.80
49373;DHT22;44113;38.408;-122.974;2022-11-06T06:44:05;25.40;52.00
49373;DHT22;44113;38.408;-122.974;2022-11-06T06:46:31;25.30;52.10
49373;DHT22;44113;38.408;-122.974;2022-11-06T06:48:58;25.20;52.10
49373;DHT22;44113;38.408;-122.974;2022-11-06T06:51:24;25.20;52.20
49373;DHT22;44113;38.408;-122.974;2022-11-06T06:53:51;25.10;52.30
49373;DHT22;44113;38.408;-122.974;2022-11-06T06:56:18;25.10;52.40
49373;DHT22;44113;38.408;-122.974;2022-11-06T06:58:45;25.10;52.50
49373;DHT22;44113;38.408;-122.974;2022-11-06T07:01:11;25.00;52.50
49373;DHT22;44113;38.408;-122.974;2022-11-06T07:03:39;24.90;52.60
49373;DHT22;44113;38.408;-122.974;2022-11-06T07:06:06;24.90;52.60
49373;DHT22;44113;38.408;-122.974;2022-11-06T07:08:34;24.80;52.70
49373;DHT22;44113;38.408;-122.974;2022-11-06T07:11:05;24.80;52.80
49373;DHT22;44113;38.408;-122.974;2022-11-06T07:13:33;24.80;52.80
49373;DHT22;44113;38.408;-122.974;2022-11-06T07:16:10;24.70;52.70
49373;DHT22;44113;38.408;-122.974;2022-11-06T07:18:39;24.70;52.70
49373;DHT22;44113;38.408;-122.974;2022-11-06T07:21:08;24.70;52.80
49373;DHT22;44113;38.408;-122.974;2022-11-06T07:23:37;24.60;52.50
49373;DHT22;44113;38.408;-122.974;2022-11-06T07:26:04;24.60;52.60
49373;DHT22;44113;38.408;-122.974;2022-11-06T07:28:31;24.60;53.10
49373;DHT22;44113;38.408;-122.974;2022-11-06T07:31:00;24.50;52.50
49373;DHT22;44113;38.408;-122.974;2022-11-06T07:33:27;24.50;52.60
49373;DHT22;44113;38.408;-122.974;2022-11-06T07:35:53;24.50;52.50
49373;DHT22;44113;38.408;-122.974;2022-11-06T07:38:21;24.50;52.50
49373;DHT22;44113;38.408;-122.974;2022-11-06T07:40:47;24.40;52.40
49373;DHT22;44113;38.408;-122.974;2022-11-06T07:43:14;24.40;52.50
49373;DHT22;44113;38.408;-122.974;2022-11-06T07:45:40;24.40;52.50
49373;DHT22;44113;38.408;-122.974;2022-11-06T07:48:08;24.40;52.50
49373;DHT22;44113;38.408;-122.974;2022-11-06T07:50:35;24.30;52.40
49373;DHT22;44113;38.408;-122.974;2022-11-06T07:53:02;24.30;52.50
49373;DHT22;44113;38.408;-122.974;2022-11-06T07:55:28;24.20;52.60
49373;DHT22;44113;38.408;-122.974;2022-11-06T07:57:56;24.20;52.60
49373;DHT22;44113;38.408;-122.974;2022-11-06T08:00:23;24.20;52.40
49373;DHT22;44113;38.408;-122.974;2022-11-06T08:02:50;24.10;52.50
49373;DHT22;44113;38.408;-122.974;2022-11-06T08:05:17;24.10;52.20
49373;DHT22;44113;38.408;-122.974;2022-11-06T08:07:45;24.10;52.30
49373;DHT22;44113;38.408;-122.974;2022-11-06T08:10:12;24.00;52.20
49373;DHT22;44113;38.408;-122.974;2022-11-06T08:12:39;24.00;52.30
49373;DHT22;44113;38.408;-122.974;2022-11-06T08:15:06;23.90;52.20
49373;DHT22;44113;38.408;-122.974;2022-11-06T08:17:33;23.90;52.20
49373;DHT22;44113;38.408;-122.974;2022-11-06T08:19:59;23.90;52.30
49373;DHT22;44113;38.408;-122.974;2022-11-06T08:22:27;23.80;52.30
49373;DHT22;44113;38.408;-122.974;2022-11-06T08:24:53;23.80;52.30
49373;DHT22;44113;38.408;-122.974;2022-11-06T08:27:20;23.80;52.20
49373;DHT22;44113;38.408;-122.974;2022-11-06T08:29:47;23.70;52.00
49373;DHT22;44113;38.408;-122.974;2022-11-06T08:32:14;23.70;52.00
49373;DHT22;44113;38.408;-122.974;2022-11-06T08:34:41;23.60;52.10
49373;DHT22;44113;38.408;-122.974;2022-11-06T08:37:08;23.60;52.10
49373;DHT22;44113;38.408;-122.974;2022-11-06T08:39:36;23.60;52.20
49373;DHT22;44113;38.408;-122.974;2022-11-06T08:42:03;23.60;52.20
49373;DHT22;44113;38.408;-122.974;2022-11-06T08:44:31;23.50;52.10
49373;DHT22;44113;38.408;-122.974;2022-11-06T08:46:58;23.50;52.40
49373;DHT22;44113;38.408;-122.974;2022-11-06T08:49:25;23.40;52.30
49373;DHT22;44113;38.408;-122.974;2022-11-06T08:51:51;23.40;52.50
49373;DHT22;44113;38.408;-122.974;2022-11-06T08:54:19;23.40;52.30
49373;DHT22;44113;38.408;-122.974;2022-11-06T08:56:46;23.40;52.40
49373;DHT22;44113;38.408;-122.974;2022-11-06T08:59:13;23.30;52.20
49373;DHT22;44113;38.408;-122.974;2022-11-06T09:01:40;23.30;52.30
49373;DHT22;44113;38.408;-122.974;2022-11-06T09:04:06;23.30;52.20
49373;DHT22;44113;38.408;-122.974;2022-11-06T09:06:33;23.30;52.10
49373;DHT22;44113;38.408;-122.974;2022-11-06T09:09:00;23.20;52.30
49373;DHT22;44113;38.408;-122.974;2022-11-06T09:11:27;23.20;52.40
49373;DHT22;44113;38.408;-122.974;2022-11-06T09:13:54;23.10;52.40
49373;DHT22;44113;38.408;-122.974;2022-11-06T09:16:20;23.00;52.60
49373;DHT22;44113;38.408;-122.974;2022-11-06T09:18:49;23.00;52.60
49373;DHT22;44113;38.408;-122.974;2022-11-06T09:21:15;22.90;52.70
49373;DHT22;44113;38.408;-122.974;2022-11-06T09:23:42;22.90;52.90
49373;DHT22;44113;38.408;-122.974;2022-11-06T09:26:12;22.90;52.70
49373;DHT22;44113;38.408;-122.974;2022-11-06T09:28:39;22.90;52.70
49373;DHT22;44113;38.408;-122.974;2022-11-06T09:31:06;22.80;52.80
49373;DHT22;44113;38.408;-122.974;2022-11-06T09:33:33;22.80;52.60
49373;DHT22;44113;38.408;-122.974;2022-11-06T09:36:03;22.80;52.90
49373;DHT22;44113;38.408;-122.974;2022-11-06T09:38:30;22.70;52.80
49373;DHT22;44113;38.408;-122.974;2022-11-06T09:40:59;22.70;52.90
49373;DHT22;44113;38.408;-122.974;2022-11-06T09:46:29;22.60;52.90
49373;DHT22;44113;38.408;-122.974;2022-11-06T09:54:12;22.60;53.00
49373;DHT22;44113;38.408;-122.974;2022-11-06T09:56:41;22.50;52.90
49373;DHT22;44113;38.408;-122.974;2022-11-06T09:59:16;22.50;52.80
49373;DHT22;44113;38.408;-122.974;2022-11-06T10:01:50;22.40;52.90
49373;DHT22;44113;38.408;-122.974;2022-11-06T10:04:48;22.40;52.90
49373;DHT22;44113;38.408;-122.974;2022-11-06T10:07:34;22.40;53.10
49373;DHT22;44113;38.408;-122.974;2022-11-06T10:10:04;22.30;52.80
49373;DHT22;44113;38.408;-122.974;2022-11-06T10:15:33;22.30;52.90
49373;DHT22;44113;38.408;-122.974;2022-11-06T10:18:17;22.30;52.90
49373;DHT22;44113;38.408;-122.974;2022-11-06T10:20:51;22.30;52.80
49373;DHT22;44113;38.408;-122.974;2022-11-06T10:23:30;22.20;52.90
49373;DHT22;44113;38.408;-122.974;2022-11-06T10:26:06;22.20;53.00
49373;DHT22;44113;38.408;-122.974;2022-11-06T10:29:14;22.20;53.10
49373;DHT22;44113;38.408;-122.974;2022-11-06T10:34:37;22.10;53.00
49373;DHT22;44113;38.408;-122.974;2022-11-06T10:37:27;22.00;53.10
49373;DHT22;44113;38.408;-122.974;2022-11-06T10:39:56;22.00;53.00
49373;DHT22;44113;38.408;-122.974;2022-11-06T10:42:30;22.00;53.40
49373;DHT22;44113;38.408;-122.974;2022-11-06T10:45:02;21.90;53.00
49373;DHT22;44113;38.408;-122.974;2022-11-06T10:47:32;21.90;53.20
49373;DHT22;44113;38.408;-122.974;2022-11-06T10:50:03;21.90;53.30
49373;DHT22;44113;38.408;-122.974;2022-11-06T10:52:47;21.80;53.20
49373;DHT22;44113;38.408;-122.974;2022-11-06T10:55:55;21.80;53.40
49373;DHT22;44113;38.408;-122.974;2022-11-06T10:58:34;21.80;53.40
49373;DHT22;44113;38.408;-122.974;2022-11-06T11:01:03;21.70;53.40
49373;DHT22;44113;38.408;-122.974;2022-11-06T11:03:35;21.70;53.40
49373;DHT22;44113;38.408;-122.974;2022-11-06T11:06:02;21.70;53.50
49373;DHT22;44113;38.408;-122.974;2022-11-06T11:13:43;21.60;53.20
49373;DHT22;44113;38.408;-122.974;2022-11-06T11:16:31;21.60;53.30
49373;DHT22;44113;38.408;-122.974;2022-11-06T11:22:00;21.50;53.30
49373;DHT22;44113;38.408;-122.974;2022-11-06T11:24:28;21.50;53.50
49373;DHT22;44113;38.408;-122.974;2022-11-06T11:27:03;21.40;53.60
49373;DHT22;44113;38.408;-122.974;2022-11-06T11:29:56;21.40;53.70
49373;DHT22;44113;38.408;-122.974;2022-11-06T11:32:23;21.40;53.50
49373;DHT22;44113;38.408;-122.974;2022-11-06T11:34:54;21.40;53.50
49373;DHT22;44113;38.408;-122.974;2022-11-06T11:37:32;21.30;53.60
49373;DHT22;44113;38.408;-122.974;2022-11-06T11:40:39;21.30;53.60
49373;DHT22;44113;38.408;-122.974;2022-11-06T11:43:25;21.30;53.50
49373;DHT22;44113;38.408;-122.974;2022-11-06T11:48:49;21.20;53.50
49373;DHT22;44113;38.408;-122.974;2022-11-06T11:51:35;21.20;53.40
49373;DHT22;44113;38.408;-122.974;2022-11-06T11:57:00;21.10;53.60
49373;DHT22;44113;38.408;-122.974;2022-11-06T11:59:46;21.10;54.00
49373;DHT22;44113;38.408;-122.974;2022-11-06T12:05:11;21.00;54.10
49373;DHT22;44113;38.408;-122.974;2022-11-06T12:07:42;20.90;53.90
49373;DHT22;44113;38.408;-122.974;2022-11-06T12:12:55;20.90;53.80
49373;DHT22;44113;38.408;-122.974;2022-11-06T12:18:19;20.90;53.90
49373;DHT22;44113;38.408;-122.974;2022-11-06T12:29:14;20.80;53.90
49373;DHT22;44113;38.408;-122.974;2022-11-06T12:34:53;20.70;53.90
49373;DHT22;44113;38.408;-122.974;2022-11-06T12:37:51;20.70;54.10
49373;DHT22;44113;38.408;-122.974;2022-11-06T12:40:23;20.60;54.30
49373;DHT22;44113;38.408;-122.974;2022-11-06T12:43:13;20.60;54.30
49373;DHT22;44113;38.408;-122.974;2022-11-06T12:51:25;20.40;54.40
49373;DHT22;44113;38.408;-122.974;2022-11-06T12:59:39;20.40;54.20
49373;DHT22;44113;38.408;-122.974;2022-11-06T13:07:51;20.40;54.10
49373;DHT22;44113;38.408;-122.974;2022-11-06T13:10:42;20.40;54.30
49373;DHT22;44113;38.408;-122.974;2022-11-06T13:13:37;20.30;54.40
49373;DHT22;44113;38.408;-122.974;2022-11-06T13:16:30;20.20;54.50
49373;DHT22;44113;38.408;-122.974;2022-11-06T13:22:05;20.20;54.70
49373;DHT22;44113;38.408;-122.974;2022-11-06T13:24:36;20.20;54.50
49373;DHT22;44113;38.408;-122.974;2022-11-06T13:28:00;20.20;55.40
49373;DHT22;44113;38.408;-122.974;2022-11-06T13:30:23;20.20;54.50
49373;DHT22;44113;38.408;-122.974;2022-11-06T13:33:01;20.10;54.60
49373;DHT22;44113;38.408;-122.974;2022-11-06T13:35:32;20.10;54.70
49373;DHT22;44113;38.408;-122.974;2022-11-06T13:38:01;20.10;54.60
49373;DHT22;44113;38.408;-122.974;2022-11-06T13:40:39;20.10;54.70
49373;DHT22;44113;38.408;-122.974;2022-11-06T13:43:35;20.00;54.60
49373;DHT22;44113;38.408;-122.974;2022-11-06T13:49:33;19.90;54.90
49373;DHT22;44113;38.408;-122.974;2022-11-06T13:52:02;19.90;54.90
49373;DHT22;44113;38.408;-122.974;2022-11-06T13:57:38;19.80;54.90
49373;DHT22;44113;38.408;-122.974;2022-11-06T14:00:22;19.80;54.70
49373;DHT22;44113;38.408;-122.974;2022-11-06T14:06:01;19.80;54.80
49373;DHT22;44113;38.408;-122.974;2022-11-06T14:08:43;19.80;54.60
49373;DHT22;44113;38.408;-122.974;2022-11-06T14:13:39;19.70;54.70
49373;DHT22;44113;38.408;-122.974;2022-11-06T14:16:24;19.70;54.70
49373;DHT22;44113;38.408;-122.974;2022-11-06T14:19:27;19.60;54.80
49373;DHT22;44113;38.408;-122.974;2022-11-06T14:21:49;19.60;55.00
49373;DHT22;44113;38.408;-122.974;2022-11-06T14:24:30;19.60;55.00
49373;DHT22;44113;38.408;-122.974;2022-11-06T14:27:08;19.50;55.00
49373;DHT22;44113;38.408;-122.974;2022-11-06T14:32:48;19.60;54.80
49373;DHT22;44113;38.408;-122.974;2022-11-06T14:34:50;19.50;54.80
49373;DHT22;44113;38.408;-122.974;2022-11-06T14:47:47;19.40;54.80
49373;DHT22;44113;38.408;-122.974;2022-11-06T14:50:39;19.40;54.90
49373;DHT22;44113;38.408;-122.974;2022-11-06T14:53:28;19.30;55.00
49373;DHT22;44113;38.408;-122.974;2022-11-06T14:56:01;19.30;55.10
49373;DHT22;44113;38.408;-122.974;2022-11-06T14:58:32;19.30;55.00
49373;DHT22;44113;38.408;-122.974;2022-11-06T15:16:39;19.20;54.70
49373;DHT22;44113;38.408;-122.974;2022-11-06T15:19:18;19.20;54.80
49373;DHT22;44113;38.408;-122.974;2022-11-06T15:21:48;19.10;54.80
49373;DHT22;44113;38.408;-122.974;2022-11-06T15:24:32;19.10;54.90
49373;DHT22;44113;38.408;-122.974;2022-11-06T15:27:07;19.10;55.00
49373;DHT22;44113;38.408;-122.974;2022-11-06T15:29:38;19.10;55.70
49373;DHT22;44113;38.408;-122.974;2022-11-06T15:32:18;19.00;55.00
49373;DHT22;44113;38.408;-122.974;2022-11-06T15:37:28;19.00;55.00
49373;DHT22;44113;38.408;-122.974;2022-11-06T15:39:57;19.00;55.00
49373;DHT22;44113;38.408;-122.974;2022-11-06T15:42:50;19.00;54.90
49373;DHT22;44113;38.408;-122.974;2022-11-06T15:48:04;19.00;55.00
49373;DHT22;44113;38.408;-122.974;2022-11-06T15:50:35;19.00;55.00
49373;DHT22;44113;38.408;-122.974;2022-11-06T15:53:29;18.90;55.10
49373;DHT22;44113;38.408;-122.974;2022-11-06T15:58:30;18.80;55.30
49373;DHT22;44113;38.408;-122.974;2022-11-06T16:00:59;18.80;55.20
49373;DHT22;44113;38.408;-122.974;2022-11-06T16:03:32;18.80;55.20
49373;DHT22;44113;38.408;-122.974;2022-11-06T16:06:08;18.80;55.20
49373;DHT22;44113;38.408;-122.974;2022-11-06T16:08:36;18.80;55.30
49373;DHT22;44113;38.408;-122.974;2022-11-06T16:11:04;18.80;55.30
49373;DHT22;44113;38.408;-122.974;2022-11-06T16:13:31;18.80;55.00
49373;DHT22;44113;38.408;-122.974;2022-11-06T16:16:01;18.80;55.20
49373;DHT22;44113;38.408;-122.974;2022-11-06T16:18:41;18.70;55.20
49373;DHT22;44113;38.408;-122.974;2022-11-06T16:21:23;18.80;55.20
49373;DHT22;44113;38.408;-122.974;2022-11-06T16:24:10;18.70;55.00
49373;DHT22;44113;38.408;-122.974;2022-11-06T16:26:43;18.70;55.00
49373;DHT22;44113;38.408;-122.974;2022-11-06T16:29:16;18.70;55.10
49373;DHT22;44113;38.408;-122.974;2022-11-06T16:31:45;18.60;55.10
49373;DHT22;44113;38.408;-122.974;2022-11-06T16:34:42;18.60;55.10
49373;DHT22;44113;38.408;-122.974;2022-11-06T16:45:33;18.60;55.30
49373;DHT22;44113;38.408;-122.974;2022-11-06T16:47:35;18.60;55.30
49373;DHT22;44113;38.408;-122.974;2022-11-06T16:50:02;18.60;55.40
49373;DHT22;44113;38.408;-122.974;2022-11-06T16:52:38;18.50;55.30
49373;DHT22;44113;38.408;-122.974;2022-11-06T16:57:48;18.50;55.10
49373;DHT22;44113;38.408;-122.974;2022-11-06T17:03:05;18.50;55.20
49373;DHT22;44113;38.408;-122.974;2022-11-06T17:05:36;18.40;55.20
49373;DHT22;44113;38.408;-122.974;2022-11-06T17:08:07;18.40;55.20
49373;DHT22;44113;38.408;-122.974;2022-11-06T17:10:36;18.40;55.30
49373;DHT22;44113;38.408;-122.974;2022-11-06T17:13:20;18.40;55.30
49373;DHT22;44113;38.408;-122.974;2022-11-06T17:15:51;18.40;55.30
49373;DHT22;44113;38.408;-122.974;2022-11-06T17:18:21;18.40;55.40
49373;DHT22;44113;38.408;-122.974;2022-11-06T17:20:52;18.40;55.30
49373;DHT22;44113;38.408;-122.974;2022-11-06T17:23:19;18.40;56.80
49373;DHT22;44113;38.408;-122.974;2022-11-06T17:25:46;18.30;58.00
49373;DHT22;44113;38.408;-122.974;2022-11-06T17:28:13;18.40;58.10
49373;DHT22;44113;38.408;-122.974;2022-11-06T17:30:40;18.40;58.30
49373;DHT22;44113;38.408;-122.974;2022-11-06T17:33:06;18.40;59.50
49373;DHT22;44113;38.408;-122.974;2022-11-06T17:35:33;18.50;58.10
49373;DHT22;44113;38.408;-122.974;2022-11-06T17:38:00;18.60;58.30
49373;DHT22;44113;38.408;-122.974;2022-11-06T17:40:26;18.60;58.20
49373;DHT22;44113;38.408;-122.974;2022-11-06T17:42:53;18.60;57.90
49373;DHT22;44113;38.408;-122.974;2022-11-06T17:45:20;18.60;58.00
49373;DHT22;44113;38.408;-122.974;2022-11-06T17:47:46;18.60;57.90
49373;DHT22;44113;38.408;-122.974;2022-11-06T17:50:13;18.60;58.00
49373;DHT22;44113;38.408;-122.974;2022-11-06T17:52:40;18.60;57.90
49373;DHT22;44113;38.408;-122.974;2022-11-06T17:55:07;18.50;57.80
49373;DHT22;44113;38.408;-122.974;2022-11-06T17:57:34;18.50;57.90